Gabriella — OJHP — position and weather

sailwx.info

Track history (hours):
 
Tides and Currents Weather Stations Pressure Air Temp Water Temp Dewpoint Dewpoint Depression Visibility Wind Speed Wind Dir Waves Ship Positions

Gabriella

Last reported at 2016-Jun-30 00:33 UTC. Time now 2016-Jun-30 01:31 UTC.
Position N 59°33' E 022°07'.

Length 172 m; draft 6.5 m.

Type: Passenger vessel. MMSI: 230361000.

Date/timePositionNaut miles runAvg speedWind from/ knotsBaromVisibWave heightAir tempDewpointWater temp
2016-Jun-30 00:33N 59°33' E 022°07'1818.2
2016-Jun-29 23:33N 59°33' E 021°32'5813.5
2016-Jun-29 19:15N 60°01' E 019°50'1421.0
2016-Jun-29 18:33N 59°50' E 019°30'4312.4
2016-Jun-29 15:07N 59°22' E 018°27'6 9.9
2016-Jun-29 14:33N 59°22' E 018°16'6 5.8
2016-Jun-29 13:33N 59°19' E 018°06'0 0.0
2016-Jun-29 12:33N 59°19' E 018°06'0 0.0
2016-Jun-29 11:30N 59°19' E 018°06'0 0.0
2016-Jun-29 10:30N 59°19' E 018°06'0 0.0
2016-Jun-29 09:33N 59°19' E 018°06'0 0.0
2016-Jun-29 08:18N 59°19' E 018°06'2 2.0
2016-Jun-29 07:25N 59°19' E 018°09'5511.3
2016-Jun-29 02:32N 59°53' E 019°35'11 5.5
2016-Jun-29 00:30N 59°54' E 019°58'3818.0
2016-Jun-28 22:23N 59°38' E 021°06'1818.6
2016-Jun-28 21:24N 59°33' E 021°40'1618.4
2016-Jun-28 20:33N 59°34' E 022°11'1918.6
2016-Jun-28 19:33N 59°37' E 022°47'1918.6
2016-Jun-28 18:33N 59°41' E 023°23'1918.6
2016-Jun-28 17:33N 59°46' E 023°59'1918.5
2016-Jun-28 16:31N 59°53' E 024°34'20 6.8
2016-Jun-28 13:33N 60°09' E 024°60'1817.8
2016-Jun-28 12:33N 59°52' E 024°53'1918.8
2016-Jun-28 11:33N 59°34' E 024°43'7 7.4
2016-Jun-28 10:33N 59°27' E 024°46'5 5.0
2016-Jun-28 09:34N 59°32' E 024°43'2620.6
2016-Jun-28 08:18N 59°57' E 024°56'13 3.5
2016-Jun-28 04:32N 59°52' E 024°31'1818.6
2016-Jun-28 03:33N 59°47' E 023°57'1918.7
2016-Jun-28 02:33N 59°42' E 023°21'1918.6
2016-Jun-28 01:33N 59°38' E 022°45'1918.6
2016-Jun-28 00:33N 59°34' E 022°09'1818.3
2016-Jun-27 23:33N 59°33' E 021°33'1918.7
2016-Jun-27 22:33N 59°37' E 020°57'1818.0
2016-Jun-27 21:33N 59°44' E 020°24'1818.1
2016-Jun-27 20:33N 59°56' E 019°57'6010.0
2016-Jun-27 14:33N 59°22' E 018°18'7 5.8
2016-Jun-27 13:23N 59°19' E 018°06'0 0.0
2016-Jun-27 12:14N 59°19' E 018°06'0 0.0
2016-Jun-27 11:32N 59°19' E 018°06'0 0.0
2016-Jun-27 10:17N 59°19' E 018°06'0 0.0
2016-Jun-27 09:29N 59°19' E 018°06'0 0.0
2016-Jun-27 08:32N 59°19' E 018°06'1 0.7
2016-Jun-27 07:33N 59°19' E 018°07'9010.0
2016-Jun-26 22:33N 59°39' E 021°00'1918.7
2016-Jun-26 21:33N 59°33' E 021°36'5618.5
2016-Jun-26 18:33N 59°41' E 023°25'51 9.3
2016-Jun-26 13:05N 60°01' E 024°57'2918.9
2016-Jun-26 11:33N 59°33' E 024°43'7 7.0
2016-Jun-26 10:34N 59°27' E 024°46'5 5.4
2016-Jun-26 09:33N 59°32' E 024°43'29 7.0
2016-Jun-26 05:21N 60°00' E 024°57'1518.5
2016-Jun-26 04:33N 59°53' E 024°32'1918.5
2016-Jun-26 03:33N 59°46' E 023°57'1918.6
2016-Jun-26 02:33N 59°42' E 023°21'1818.5
2016-Jun-26 01:33N 59°38' E 022°46'1918.5
2016-Jun-26 00:33N 59°34' E 022°10'1818.2
2016-Jun-25 23:34N 59°33' E 021°35'1919.2
2016-Jun-25 22:33N 59°37' E 020°57'3817.7
2016-Jun-25 20:25N 59°58' E 019°55'6210.5
2016-Jun-25 14:30N 59°22' E 018°16'6 1.8
2016-Jun-25 11:22N 59°19' E 018°06'0 0.0
2016-Jun-25 10:28N 59°19' E 018°06'0 0.0
2016-Jun-25 08:28N 59°19' E 018°06'2 1.7
2016-Jun-25 07:24N 59°19' E 018°09'8910.0
2016-Jun-24 22:30N 59°39' E 021°01'1718.3
2016-Jun-24 21:33N 59°34' E 021°34'5418.0
2016-Jun-24 18:33N 59°41' E 023°20'1818.4
2016-Jun-24 17:33N 59°46' E 023°55'26 4.3
2016-Jun-24 11:33N 59°35' E 024°42'8 8.3
2016-Jun-24 10:33N 59°27' E 024°46'7 6.8
2016-Jun-24 09:34N 59°33' E 024°42'2420.3
2016-Jun-24 08:22N 59°56' E 024°56'13 3.3
2016-Jun-24 04:33N 59°53' E 024°32'1818.5
2016-Jun-24 03:33N 59°46' E 023°57'1918.7
2016-Jun-24 02:33N 59°42' E 023°21'1918.6
2016-Jun-24 01:33N 59°38' E 022°45'1818.5
2016-Jun-24 00:33N 59°34' E 022°09'1818.2
2016-Jun-23 23:33N 59°33' E 021°33'1918.6
2016-Jun-23 22:33N 59°37' E 020°57'7810.5
2016-Jun-23 15:07N 59°21' E 018°27'610.4
2016-Jun-23 14:34N 59°21' E 018°15'5 1.6
2016-Jun-23 11:15N 59°19' E 018°06'0 0.0
2016-Jun-23 10:30N 59°19' E 018°06'0 0.0
2016-Jun-23 09:09N 59°19' E 018°06'0 0.0
2016-Jun-23 08:33N 59°19' E 018°06'2 1.7
2016-Jun-23 07:28N 59°19' E 018°09'5611.3
2016-Jun-23 02:32N 59°53' E 019°36'4711.5
2016-Jun-22 22:28N 59°38' E 021°04'1818.6
2016-Jun-22 21:30N 59°33' E 021°38'1718.3
2016-Jun-22 20:33N 59°34' E 022°12'1918.6
2016-Jun-22 19:32N 59°37' E 022°49'1818.6
2016-Jun-22 18:33N 59°41' E 023°24'1918.6
2016-Jun-22 17:33N 59°47' E 023°60'1918.5
2016-Jun-22 16:32N 59°54' E 024°34'20 4.0
2016-Jun-22 11:33N 59°34' E 024°43'8 7.7
2016-Jun-22 10:34N 59°27' E 024°46'6 5.6
2016-Jun-22 09:33N 59°32' E 024°43'2820.4
2016-Jun-22 08:10N 59°59' E 024°57'15 4.1
2016-Jun-22 04:30N 59°52' E 024°30'1818.6
2016-Jun-22 03:34N 59°46' E 023°57'1918.7
2016-Jun-22 02:33N 59°41' E 023°21'3718.6
2016-Jun-22 00:34N 59°33' E 022°10'1918.6
2016-Jun-21 23:31N 59°33' E 021°31'9511.2
2016-Jun-21 15:03N 59°22' E 018°27'510.6
2016-Jun-21 14:33N 59°22' E 018°16'6 4.0
2016-Jun-21 13:04N 59°19' E 018°06'0 0.0
2016-Jun-21 12:31N 59°19' E 018°06'0 0.0
2016-Jun-21 11:16N 59°19' E 018°06'0 0.0
2016-Jun-21 10:31N 59°19' E 018°06'0 0.0
2016-Jun-21 09:31N 59°19' E 018°06'2 0.8
2016-Jun-21 07:25N 59°19' E 018°09'9210.1
2016-Jun-20 22:21N 59°38' E 021°07'1418.2
2016-Jun-20 21:34N 59°34' E 021°34'1817.9
2016-Jun-20 20:34N 59°34' E 022°10'2718.3
2016-Jun-20 19:07N 59°40' E 023°00'1017.9
2016-Jun-20 18:33N 59°42' E 023°20'1818.2
2016-Jun-20 17:34N 59°46' E 023°55'1918.2
2016-Jun-20 16:33N 59°52' E 024°30'1917.3
2016-Jun-20 15:28N 60°05' E 024°58'31 7.9
2016-Jun-20 11:33N 59°35' E 024°42'8 6.0
2016-Jun-20 10:11N 59°27' E 024°46'710.4
2016-Jun-20 09:33N 59°33' E 024°42'2020.1
2016-Jun-20 08:32N 59°53' E 024°54'18 4.0
2016-Jun-20 04:11N 59°49' E 024°19'1218.7
2016-Jun-20 03:33N 59°46' E 023°56'1918.7
2016-Jun-20 02:33N 59°42' E 023°21'2718.7
2016-Jun-20 01:06N 59°36' E 022°28'1018.7
2016-Jun-20 00:33N 59°33' E 022°09'  
Track history (hours):
 
Tides and Currents Weather Stations Pressure Air Temp Water Temp Dewpoint Dewpoint Depression Visibility Wind Speed Wind Dir Waves Ship Positions

Gabriella

Last reported at 2016-Jun-30 00:33 UTC. Time now 2016-Jun-30 01:31 UTC.
Position N 59°33' E 022°07'.

Length 172 m; draft 6.5 m.

Type: Passenger vessel. MMSI: 230361000.

Date/timePositionNaut miles runAvg speedWind from/ knotsBaromVisibWave heightAir tempDewpointWater temp
2016-Jun-30 00:33N 59°33' E 022°07'1818.2
2016-Jun-29 23:33N 59°33' E 021°32'5813.5
2016-Jun-29 19:15N 60°01' E 019°50'1421.0
2016-Jun-29 18:33N 59°50' E 019°30'4312.4
2016-Jun-29 15:07N 59°22' E 018°27'6 9.9
2016-Jun-29 14:33N 59°22' E 018°16'6 5.8
2016-Jun-29 13:33N 59°19' E 018°06'0 0.0
2016-Jun-29 12:33N 59°19' E 018°06'0 0.0
2016-Jun-29 11:30N 59°19' E 018°06'0 0.0
2016-Jun-29 10:30N 59°19' E 018°06'0 0.0
2016-Jun-29 09:33N 59°19' E 018°06'0 0.0
2016-Jun-29 08:18N 59°19' E 018°06'2 2.0
2016-Jun-29 07:25N 59°19' E 018°09'5511.3
2016-Jun-29 02:32N 59°53' E 019°35'11 5.5
2016-Jun-29 00:30N 59°54' E 019°58'3818.0
2016-Jun-28 22:23N 59°38' E 021°06'1818.6
2016-Jun-28 21:24N 59°33' E 021°40'1618.4
2016-Jun-28 20:33N 59°34' E 022°11'1918.6
2016-Jun-28 19:33N 59°37' E 022°47'1918.6
2016-Jun-28 18:33N 59°41' E 023°23'1918.6
2016-Jun-28 17:33N 59°46' E 023°59'1918.5
2016-Jun-28 16:31N 59°53' E 024°34'20 6.8
2016-Jun-28 13:33N 60°09' E 024°60'1817.8
2016-Jun-28 12:33N 59°52' E 024°53'1918.8
2016-Jun-28 11:33N 59°34' E 024°43'7 7.4
2016-Jun-28 10:33N 59°27' E 024°46'5 5.0
2016-Jun-28 09:34N 59°32' E 024°43'2620.6
2016-Jun-28 08:18N 59°57' E 024°56'13 3.5
2016-Jun-28 04:32N 59°52' E 024°31'1818.6
2016-Jun-28 03:33N 59°47' E 023°57'1918.7
2016-Jun-28 02:33N 59°42' E 023°21'1918.6
2016-Jun-28 01:33N 59°38' E 022°45'1918.6
2016-Jun-28 00:33N 59°34' E 022°09'1818.3
2016-Jun-27 23:33N 59°33' E 021°33'1918.7
2016-Jun-27 22:33N 59°37' E 020°57'1818.0
2016-Jun-27 21:33N 59°44' E 020°24'1818.1
2016-Jun-27 20:33N 59°56' E 019°57'6010.0
2016-Jun-27 14:33N 59°22' E 018°18'7 5.8
2016-Jun-27 13:23N 59°19' E 018°06'0 0.0
2016-Jun-27 12:14N 59°19' E 018°06'0 0.0
2016-Jun-27 11:32N 59°19' E 018°06'0 0.0
2016-Jun-27 10:17N 59°19' E 018°06'0 0.0
2016-Jun-27 09:29N 59°19' E 018°06'0 0.0
2016-Jun-27 08:32N 59°19' E 018°06'1 0.7
2016-Jun-27 07:33N 59°19' E 018°07'9010.0
2016-Jun-26 22:33N 59°39' E 021°00'1918.7
2016-Jun-26 21:33N 59°33' E 021°36'5618.5
2016-Jun-26 18:33N 59°41' E 023°25'51 9.3
2016-Jun-26 13:05N 60°01' E 024°57'2918.9
2016-Jun-26 11:33N 59°33' E 024°43'7 7.0
2016-Jun-26 10:34N 59°27' E 024°46'5 5.4
2016-Jun-26 09:33N 59°32' E 024°43'29 7.0
2016-Jun-26 05:21N 60°00' E 024°57'1518.5
2016-Jun-26 04:33N 59°53' E 024°32'1918.5
2016-Jun-26 03:33N 59°46' E 023°57'1918.6
2016-Jun-26 02:33N 59°42' E 023°21'1818.5
2016-Jun-26 01:33N 59°38' E 022°46'1918.5
2016-Jun-26 00:33N 59°34' E 022°10'1818.2
2016-Jun-25 23:34N 59°33' E 021°35'1919.2
2016-Jun-25 22:33N 59°37' E 020°57'3817.7
2016-Jun-25 20:25N 59°58' E 019°55'6210.5
2016-Jun-25 14:30N 59°22' E 018°16'6 1.8
2016-Jun-25 11:22N 59°19' E 018°06'0 0.0
2016-Jun-25 10:28N 59°19' E 018°06'0 0.0
2016-Jun-25 08:28N 59°19' E 018°06'2 1.7
2016-Jun-25 07:24N 59°19' E 018°09'8910.0
2016-Jun-24 22:30N 59°39' E 021°01'1718.3
2016-Jun-24 21:33N 59°34' E 021°34'5418.0
2016-Jun-24 18:33N 59°41' E 023°20'1818.4
2016-Jun-24 17:33N 59°46' E 023°55'26 4.3
2016-Jun-24 11:33N 59°35' E 024°42'8 8.3
2016-Jun-24 10:33N 59°27' E 024°46'7 6.8
2016-Jun-24 09:34N 59°33' E 024°42'2420.3
2016-Jun-24 08:22N 59°56' E 024°56'13 3.3
2016-Jun-24 04:33N 59°53' E 024°32'1818.5
2016-Jun-24 03:33N 59°46' E 023°57'1918.7
2016-Jun-24 02:33N 59°42' E 023°21'1918.6
2016-Jun-24 01:33N 59°38' E 022°45'1818.5
2016-Jun-24 00:33N 59°34' E 022°09'1818.2
2016-Jun-23 23:33N 59°33' E 021°33'1918.6
2016-Jun-23 22:33N 59°37' E 020°57'7810.5
2016-Jun-23 15:07N 59°21' E 018°27'610.4
2016-Jun-23 14:34N 59°21' E 018°15'5 1.6
2016-Jun-23 11:15N 59°19' E 018°06'0 0.0
2016-Jun-23 10:30N 59°19' E 018°06'0 0.0
2016-Jun-23 09:09N 59°19' E 018°06'0 0.0
2016-Jun-23 08:33N 59°19' E 018°06'2 1.7
2016-Jun-23 07:28N 59°19' E 018°09'5611.3
2016-Jun-23 02:32N 59°53' E 019°36'4711.5
2016-Jun-22 22:28N 59°38' E 021°04'1818.6
2016-Jun-22 21:30N 59°33' E 021°38'1718.3
2016-Jun-22 20:33N 59°34' E 022°12'1918.6
2016-Jun-22 19:32N 59°37' E 022°49'1818.6
2016-Jun-22 18:33N 59°41' E 023°24'1918.6
2016-Jun-22 17:33N 59°47' E 023°60'1918.5
2016-Jun-22 16:32N 59°54' E 024°34'20 4.0
2016-Jun-22 11:33N 59°34' E 024°43'8 7.7
2016-Jun-22 10:34N 59°27' E 024°46'6 5.6
2016-Jun-22 09:33N 59°32' E 024°43'2820.4
2016-Jun-22 08:10N 59°59' E 024°57'15 4.1
2016-Jun-22 04:30N 59°52' E 024°30'1818.6
2016-Jun-22 03:34N 59°46' E 023°57'1918.7
2016-Jun-22 02:33N 59°41' E 023°21'3718.6
2016-Jun-22 00:34N 59°33' E 022°10'1918.6
2016-Jun-21 23:31N 59°33' E 021°31'9511.2
2016-Jun-21 15:03N 59°22' E 018°27'510.6
2016-Jun-21 14:33N 59°22' E 018°16'6 4.0
2016-Jun-21 13:04N 59°19' E 018°06'0 0.0
2016-Jun-21 12:31N 59°19' E 018°06'0 0.0
2016-Jun-21 11:16N 59°19' E 018°06'0 0.0
2016-Jun-21 10:31N 59°19' E 018°06'0 0.0
2016-Jun-21 09:31N 59°19' E 018°06'2 0.8
2016-Jun-21 07:25N 59°19' E 018°09'9210.1
2016-Jun-20 22:21N 59°38' E 021°07'1418.2
2016-Jun-20 21:34N 59°34' E 021°34'1817.9
2016-Jun-20 20:34N 59°34' E 022°10'2718.3
2016-Jun-20 19:07N 59°40' E 023°00'1017.9
2016-Jun-20 18:33N 59°42' E 023°20'1818.2
2016-Jun-20 17:34N 59°46' E 023°55'1918.2
2016-Jun-20 16:33N 59°52' E 024°30'1917.3
2016-Jun-20 15:28N 60°05' E 024°58'31 7.9
2016-Jun-20 11:33N 59°35' E 024°42'8 6.0
2016-Jun-20 10:11N 59°27' E 024°46'710.4
2016-Jun-20 09:33N 59°33' E 024°42'2020.1
2016-Jun-20 08:32N 59°53' E 024°54'18 4.0
2016-Jun-20 04:11N 59°49' E 024°19'1218.7
2016-Jun-20 03:33N 59°46' E 023°56'1918.7
2016-Jun-20 02:33N 59°42' E 023°21'2718.7
2016-Jun-20 01:06N 59°36' E 022°28'1018.7
2016-Jun-20 00:33N 59°33' E 022°09'  

Dump ship's entire track history